sensor_id;sensor_type;location;lat;lon;timestamp;temperature;humidity
1958;DHT22;979;51.076;13.748;2022-12-07T00:01:29;5.70;76.70
1958;DHT22;979;51.076;13.748;2022-12-07T00:04:24;5.90;77.00
1958;DHT22;979;51.076;13.748;2022-12-07T00:07:02;5.90;76.90
1958;DHT22;979;51.076;13.748;2022-12-07T00:09:53;5.90;76.80
1958;DHT22;979;51.076;13.748;2022-12-07T00:12:28;5.90;76.80
1958;DHT22;979;51.076;13.748;2022-12-07T00:15:12;5.80;76.30
1958;DHT22;979;51.076;13.748;2022-12-07T00:18:00;5.80;76.60
1958;DHT22;979;51.076;13.748;2022-12-07T00:20:53;5.80;76.60
1958;DHT22;979;51.076;13.748;2022-12-07T00:23:57;6.00;77.50
1958;DHT22;979;51.076;13.748;2022-12-07T00:26:48;5.80;76.30
1958;DHT22;979;51.076;13.748;2022-12-07T00:29:46;5.80;76.50
1958;DHT22;979;51.076;13.748;2022-12-07T00:32:33;5.80;76.20
1958;DHT22;979;51.076;13.748;2022-12-07T00:35:28;5.80;76.10
1958;DHT22;979;51.076;13.748;2022-12-07T00:38:09;5.70;76.30
1958;DHT22;979;51.076;13.748;2022-12-07T00:40:59;5.70;76.40
1958;DHT22;979;51.076;13.748;2022-12-07T00:44:10;5.80;76.20
1958;DHT22;979;51.076;13.748;2022-12-07T00:46:48;5.70;76.30
1958;DHT22;979;51.076;13.748;2022-12-07T00:49:38;5.80;76.10
1958;DHT22;979;51.076;13.748;2022-12-07T00:52:39;5.70;75.90
1958;DHT22;979;51.076;13.748;2022-12-07T00:59:01;5.80;76.00
1958;DHT22;979;51.076;13.748;2022-12-07T01:04:45;5.80;76.30
1958;DHT22;979;51.076;13.748;2022-12-07T01:07:27;5.80;76.30
1958;DHT22;979;51.076;13.748;2022-12-07T01:10:07;5.80;75.90
1958;DHT22;979;51.076;13.748;2022-12-07T01:12:47;5.80;76.10
1958;DHT22;979;51.076;13.748;2022-12-07T01:15:24;5.80;75.90
1958;DHT22;979;51.076;13.748;2022-12-07T01:18:21;5.80;75.90
1958;DHT22;979;51.076;13.748;2022-12-07T01:21:28;5.80;76.20
1958;DHT22;979;51.076;13.748;2022-12-07T01:24:22;5.80;76.10
1958;DHT22;979;51.076;13.748;2022-12-07T01:27:01;5.80;76.00
1958;DHT22;979;51.076;13.748;2022-12-07T01:29:52;5.80;76.00
1958;DHT22;979;51.076;13.748;2022-12-07T01:32:53;5.80;75.70
1958;DHT22;979;51.076;13.748;2022-12-07T01:35:29;6.00;76.30
1958;DHT22;979;51.076;13.748;2022-12-07T01:38:21;5.90;76.10
1958;DHT22;979;51.076;13.748;2022-12-07T01:40:58;5.80;75.60
1958;DHT22;979;51.076;13.748;2022-12-07T01:44:20;5.80;75.80
1958;DHT22;979;51.076;13.748;2022-12-07T01:47:02;5.80;75.80
1958;DHT22;979;51.076;13.748;2022-12-07T01:50:39;5.90;76.00
1958;DHT22;979;51.076;13.748;2022-12-07T01:53:22;5.90;75.70
1958;DHT22;979;51.076;13.748;2022-12-07T01:56:15;5.90;75.70
1958;DHT22;979;51.076;13.748;2022-12-07T01:58:53;5.80;75.40
1958;DHT22;979;51.076;13.748;2022-12-07T02:01:49;6.00;76.00
1958;DHT22;979;51.076;13.748;2022-12-07T02:04:38;6.00;76.10
1958;DHT22;979;51.076;13.748;2022-12-07T02:07:26;6.00;75.70
1958;DHT22;979;51.076;13.748;2022-12-07T02:10:33;5.90;75.30
1958;DHT22;979;51.076;13.748;2022-12-07T02:13:27;5.70;75.50
1958;DHT22;979;51.076;13.748;2022-12-07T02:16:21;5.90;75.70
1958;DHT22;979;51.076;13.748;2022-12-07T02:23:28;5.80;75.00
1958;DHT22;979;51.076;13.748;2022-12-07T02:27:01;5.60;74.80
1958;DHT22;979;51.076;13.748;2022-12-07T02:29:54;5.40;74.80
1958;DHT22;979;51.076;13.748;2022-12-07T02:32:53;5.20;74.70
1958;DHT22;979;51.076;13.748;2022-12-07T02:35:46;5.20;75.10
1958;DHT22;979;51.076;13.748;2022-12-07T02:38:30;5.20;74.80
1958;DHT22;979;51.076;13.748;2022-12-07T02:41:26;5.10;74.90
1958;DHT22;979;51.076;13.748;2022-12-07T02:44:19;5.00;74.80
1958;DHT22;979;51.076;13.748;2022-12-07T02:47:22;5.00;74.80
1958;DHT22;979;51.076;13.748;2022-12-07T02:49:58;4.90;74.70
1958;DHT22;979;51.076;13.748;2022-12-07T02:52:51;4.80;74.90
1958;DHT22;979;51.076;13.748;2022-12-07T02:55:34;4.80;75.00
1958;DHT22;979;51.076;13.748;2022-12-07T02:58:20;4.80;74.80
1958;DHT22;979;51.076;13.748;2022-12-07T03:01:12;4.70;74.90
1958;DHT22;979;51.076;13.748;2022-12-07T03:04:05;4.80;75.10
1958;DHT22;979;51.076;13.748;2022-12-07T03:06:49;4.90;75.30
1958;DHT22;979;51.076;13.748;2022-12-07T03:09:44;5.00;75.10
1958;DHT22;979;51.076;13.748;2022-12-07T03:12:19;4.90;75.00
1958;DHT22;979;51.076;13.748;2022-12-07T03:15:00;4.90;75.10
1958;DHT22;979;51.076;13.748;2022-12-07T03:17:49;5.10;75.30
1958;DHT22;979;51.076;13.748;2022-12-07T03:20:39;5.20;75.40
1958;DHT22;979;51.076;13.748;2022-12-07T03:23:34;5.20;75.20
1958;DHT22;979;51.076;13.748;2022-12-07T03:26:17;5.30;74.90
1958;DHT22;979;51.076;13.748;2022-12-07T03:28:59;5.20;75.10
1958;DHT22;979;51.076;13.748;2022-12-07T03:31:46;5.40;75.00
1958;DHT22;979;51.076;13.748;2022-12-07T03:34:27;5.20;74.80
1958;DHT22;979;51.076;13.748;2022-12-07T03:37:17;5.10;74.70
1958;DHT22;979;51.076;13.748;2022-12-07T03:40:11;5.00;74.60
1958;DHT22;979;51.076;13.748;2022-12-07T03:43:00;5.10;74.70
1958;DHT22;979;51.076;13.748;2022-12-07T03:45:45;5.10;74.70
1958;DHT22;979;51.076;13.748;2022-12-07T03:48:32;5.10;74.60
1958;DHT22;979;51.076;13.748;2022-12-07T03:51:25;5.10;74.70
1958;DHT22;979;51.076;13.748;2022-12-07T03:54:17;5.10;74.70
1958;DHT22;979;51.076;13.748;2022-12-07T03:57:05;5.10;74.90
1958;DHT22;979;51.076;13.748;2022-12-07T03:59:57;5.00;74.70
1958;DHT22;979;51.076;13.748;2022-12-07T04:02:38;5.00;74.60
1958;DHT22;979;51.076;13.748;2022-12-07T04:05:14;5.00;74.60
1958;DHT22;979;51.076;13.748;2022-12-07T04:08:02;5.00;75.00
1958;DHT22;979;51.076;13.748;2022-12-07T04:10:44;5.00;74.90
1958;DHT22;979;51.076;13.748;2022-12-07T04:13:42;5.00;75.10
1958;DHT22;979;51.076;13.748;2022-12-07T04:16:31;5.00;75.10
1958;DHT22;979;51.076;13.748;2022-12-07T04:19:11;5.00;74.90
1958;DHT22;979;51.076;13.748;2022-12-07T04:24:47;5.00;74.40
1958;DHT22;979;51.076;13.748;2022-12-07T04:27:25;4.80;74.10
1958;DHT22;979;51.076;13.748;2022-12-07T04:30:14;4.70;74.00
1958;DHT22;979;51.076;13.748;2022-12-07T04:32:53;4.80;74.50
1958;DHT22;979;51.076;13.748;2022-12-07T04:35:31;4.70;74.40
1958;DHT22;979;51.076;13.748;2022-12-07T04:38:23;5.00;74.40
1958;DHT22;979;51.076;13.748;2022-12-07T04:41:14;4.50;74.00
1958;DHT22;979;51.076;13.748;2022-12-07T04:44:15;4.80;74.60
1958;DHT22;979;51.076;13.748;2022-12-07T04:46:56;4.60;74.20
1958;DHT22;979;51.076;13.748;2022-12-07T04:49:48;4.60;74.40
1958;DHT22;979;51.076;13.748;2022-12-07T04:52:24;4.60;74.30
1958;DHT22;979;51.076;13.748;2022-12-07T04:54:57;4.50;74.10
1958;DHT22;979;51.076;13.748;2022-12-07T04:57:32;4.50;74.30
1958;DHT22;979;51.076;13.748;2022-12-07T05:03:58;4.40;73.90
1958;DHT22;979;51.076;13.748;2022-12-07T05:06:50;4.20;73.80
1958;DHT22;979;51.076;13.748;2022-12-07T05:10:08;4.40;74.30
1958;DHT22;979;51.076;13.748;2022-12-07T05:13:03;4.40;74.00
1958;DHT22;979;51.076;13.748;2022-12-07T05:15:59;4.40;74.20
1958;DHT22;979;51.076;13.748;2022-12-07T05:18:35;4.40;74.20
1958;DHT22;979;51.076;13.748;2022-12-07T05:21:15;4.40;74.10
1958;DHT22;979;51.076;13.748;2022-12-07T05:23:58;4.50;74.00
1958;DHT22;979;51.076;13.748;2022-12-07T05:26:39;4.40;74.10
1958;DHT22;979;51.076;13.748;2022-12-07T05:29:28;4.60;74.40
1958;DHT22;979;51.076;13.748;2022-12-07T05:32:17;4.40;74.20
1958;DHT22;979;51.076;13.748;2022-12-07T05:35:30;4.40;74.00
1958;DHT22;979;51.076;13.748;2022-12-07T05:38:37;4.60;74.20
1958;DHT22;979;51.076;13.748;2022-12-07T05:41:15;4.70;74.60
1958;DHT22;979;51.076;13.748;2022-12-07T05:44:09;5.00;74.50
1958;DHT22;979;51.076;13.748;2022-12-07T05:47:03;4.80;74.10
1958;DHT22;979;51.076;13.748;2022-12-07T05:49:43;4.90;74.10
1958;DHT22;979;51.076;13.748;2022-12-07T05:52:28;5.00;74.20
1958;DHT22;979;51.076;13.748;2022-12-07T05:55:20;5.20;74.50
1958;DHT22;979;51.076;13.748;2022-12-07T05:58:07;5.30;74.40
1958;DHT22;979;51.076;13.748;2022-12-07T06:01:09;5.20;74.30
1958;DHT22;979;51.076;13.748;2022-12-07T06:04:02;5.30;74.50
1958;DHT22;979;51.076;13.748;2022-12-07T06:07:00;5.50;74.60
1958;DHT22;979;51.076;13.748;2022-12-07T06:09:52;5.40;74.60
1958;DHT22;979;51.076;13.748;2022-12-07T06:12:53;5.50;74.50
1958;DHT22;979;51.076;13.748;2022-12-07T06:21:48;5.80;74.40
1958;DHT22;979;51.076;13.748;2022-12-07T06:24:44;5.70;74.30
1958;DHT22;979;51.076;13.748;2022-12-07T06:27:34;5.90;74.70
1958;DHT22;979;51.076;13.748;2022-12-07T06:30:24;5.90;74.60
1958;DHT22;979;51.076;13.748;2022-12-07T06:33:00;5.80;74.20
1958;DHT22;979;51.076;13.748;2022-12-07T06:35:56;6.00;74.80
1958;DHT22;979;51.076;13.748;2022-12-07T06:38:46;6.00;74.20
1958;DHT22;979;51.076;13.748;2022-12-07T06:41:23;5.90;73.70
1958;DHT22;979;51.076;13.748;2022-12-07T06:44:04;5.90;73.60
1958;DHT22;979;51.076;13.748;2022-12-07T06:46:51;5.90;73.70
1958;DHT22;979;51.076;13.748;2022-12-07T06:50:31;5.90;73.80
1958;DHT22;979;51.076;13.748;2022-12-07T06:53:07;5.90;73.90
1958;DHT22;979;51.076;13.748;2022-12-07T06:56:10;5.80;73.80
1958;DHT22;979;51.076;13.748;2022-12-07T06:58:51;5.80;73.60
1958;DHT22;979;51.076;13.748;2022-12-07T07:01:55;5.80;73.60
1958;DHT22;979;51.076;13.748;2022-12-07T07:04:40;5.70;73.60
1958;DHT22;979;51.076;13.748;2022-12-07T07:07:27;5.70;73.60
1958;DHT22;979;51.076;13.748;2022-12-07T07:10:05;5.70;73.60
1958;DHT22;979;51.076;13.748;2022-12-07T07:13:25;5.60;73.50
1958;DHT22;979;51.076;13.748;2022-12-07T07:16:12;5.50;73.50
1958;DHT22;979;51.076;13.748;2022-12-07T07:18:59;5.40;73.70
1958;DHT22;979;51.076;13.748;2022-12-07T07:21:39;5.40;74.10
1958;DHT22;979;51.076;13.748;2022-12-07T07:24:32;5.40;74.80
1958;DHT22;979;51.076;13.748;2022-12-07T07:27:23;5.40;74.30
1958;DHT22;979;51.076;13.748;2022-12-07T07:30:03;5.40;74.40
1958;DHT22;979;51.076;13.748;2022-12-07T07:32:43;5.30;74.30
1958;DHT22;979;51.076;13.748;2022-12-07T07:35:32;5.20;74.20
1958;DHT22;979;51.076;13.748;2022-12-07T07:38:17;5.40;74.80
1958;DHT22;979;51.076;13.748;2022-12-07T07:41:01;5.40;74.70
1958;DHT22;979;51.076;13.748;2022-12-07T07:43:38;5.40;74.60
1958;DHT22;979;51.076;13.748;2022-12-07T07:46:12;5.40;74.90
1958;DHT22;979;51.076;13.748;2022-12-07T07:48:59;5.60;75.20
1958;DHT22;979;51.076;13.748;2022-12-07T07:51:49;5.50;75.00
1958;DHT22;979;51.076;13.748;2022-12-07T07:54:31;5.50;74.90
1958;DHT22;979;51.076;13.748;2022-12-07T07:57:23;5.50;75.00
1958;DHT22;979;51.076;13.748;2022-12-07T07:59:56;5.50;75.00
1958;DHT22;979;51.076;13.748;2022-12-07T08:02:40;5.50;75.30
1958;DHT22;979;51.076;13.748;2022-12-07T08:05:39;5.80;75.50
1958;DHT22;979;51.076;13.748;2022-12-07T08:08:36;5.70;75.50
1958;DHT22;979;51.076;13.748;2022-12-07T08:11:27;5.70;75.50
1958;DHT22;979;51.076;13.748;2022-12-07T08:14:13;5.80;75.50
1958;DHT22;979;51.076;13.748;2022-12-07T08:17:11;5.70;75.10
1958;DHT22;979;51.076;13.748;2022-12-07T08:20:31;5.90;75.50
1958;DHT22;979;51.076;13.748;2022-12-07T08:23:56;6.00;75.40
1958;DHT22;979;51.076;13.748;2022-12-07T08:27:03;6.10;75.20
1958;DHT22;979;51.076;13.748;2022-12-07T08:29:40;6.00;75.00
1958;DHT22;979;51.076;13.748;2022-12-07T08:32:15;6.00;75.40
1958;DHT22;979;51.076;13.748;2022-12-07T08:35:01;6.00;75.50
1958;DHT22;979;51.076;13.748;2022-12-07T08:37:52;6.20;75.90
1958;DHT22;979;51.076;13.748;2022-12-07T08:41:04;6.20;75.80
1958;DHT22;979;51.076;13.748;2022-12-07T08:44:23;6.10;75.30
1958;DHT22;979;51.076;13.748;2022-12-07T08:47:22;6.30;75.60
1958;DHT22;979;51.076;13.748;2022-12-07T08:50:18;6.40;75.40
1958;DHT22;979;51.076;13.748;2022-12-07T08:53:37;6.40;75.30
1958;DHT22;979;51.076;13.748;2022-12-07T08:56:25;6.50;75.30
1958;DHT22;979;51.076;13.748;2022-12-07T08:59:26;6.50;75.30
1958;DHT22;979;51.076;13.748;2022-12-07T09:01:59;6.50;75.70
1958;DHT22;979;51.076;13.748;2022-12-07T09:04:33;6.80;76.50
1958;DHT22;979;51.076;13.748;2022-12-07T09:07:17;6.90;75.90
1958;DHT22;979;51.076;13.748;2022-12-07T12:35:19;6.90;75.70
1958;DHT22;979;51.076;13.748;2022-12-07T12:38:27;7.10;76.10
1958;DHT22;979;51.076;13.748;2022-12-07T12:41:56;7.10;76.00
1958;DHT22;979;51.076;13.748;2022-12-07T13:05:37;7.20;75.70
1958;DHT22;979;51.076;13.748;2022-12-07T13:08:43;7.00;75.30
1958;DHT22;979;51.076;13.748;2022-12-07T13:11:33;6.90;75.20
